sensor_id;sensor_type;location;lat;lon;timestamp;P1;durP1;ratioP1;P2;durP2;ratioP2
23260;SDS011;11799;47.740;-3.390;2023-05-16T00:01:28;7.45;;;1.92;;
23260;SDS011;11799;47.740;-3.390;2023-05-16T00:03:55;6.97;;;2.00;;
23260;SDS011;11799;47.740;-3.390;2023-05-16T00:06:21;9.15;;;2.13;;
23260;SDS011;11799;47.740;-3.390;2023-05-16T00:08:47;7.65;;;1.90;;
23260;SDS011;11799;47.740;-3.390;2023-05-16T00:11:16;9.90;;;2.15;;
23260;SDS011;11799;47.740;-3.390;2023-05-16T00:13:41;4.03;;;1.80;;
23260;SDS011;11799;47.740;-3.390;2023-05-16T00:16:07;6.88;;;1.80;;
23260;SDS011;11799;47.740;-3.390;2023-05-16T00:18:33;6.22;;;1.70;;
23260;SDS011;11799;47.740;-3.390;2023-05-16T00:21:04;9.13;;;2.17;;
23260;SDS011;11799;47.740;-3.390;2023-05-16T00:23:31;8.75;;;2.47;;
23260;SDS011;11799;47.740;-3.390;2023-05-16T00:25:56;6.97;;;1.98;;
23260;SDS011;11799;47.740;-3.390;2023-05-16T00:28:22;8.70;;;1.83;;
23260;SDS011;11799;47.740;-3.390;2023-05-16T00:30:48;10.05;;;1.90;;
23260;SDS011;11799;47.740;-3.390;2023-05-16T00:33:14;6.60;;;1.92;;
23260;SDS011;11799;47.740;-3.390;2023-05-16T00:35:40;9.20;;;2.13;;
23260;SDS011;11799;47.740;-3.390;2023-05-16T00:38:05;9.48;;;1.85;;
23260;SDS011;11799;47.740;-3.390;2023-05-16T00:40:31;9.40;;;2.60;;
23260;SDS011;11799;47.740;-3.390;2023-05-16T00:42:57;5.55;;;1.67;;
23260;SDS011;11799;47.740;-3.390;2023-05-16T00:45:25;7.45;;;1.88;;
23260;SDS011;11799;47.740;-3.390;2023-05-16T00:47:50;5.18;;;1.77;;
23260;SDS011;11799;47.740;-3.390;2023-05-16T00:50:16;9.43;;;2.05;;
23260;SDS011;11799;47.740;-3.390;2023-05-16T00:52:43;7.10;;;1.92;;
23260;SDS011;11799;47.740;-3.390;2023-05-16T00:55:09;8.95;;;1.92;;
23260;SDS011;11799;47.740;-3.390;2023-05-16T00:57:35;5.82;;;1.98;;
23260;SDS011;11799;47.740;-3.390;2023-05-16T01:00:03;9.27;;;2.03;;
23260;SDS011;11799;47.740;-3.390;2023-05-16T01:02:31;11.73;;;2.28;;
23260;SDS011;11799;47.740;-3.390;2023-05-16T01:04:58;5.78;;;2.13;;
23260;SDS011;11799;47.740;-3.390;2023-05-16T01:07:24;5.30;;;1.70;;
23260;SDS011;11799;47.740;-3.390;2023-05-16T01:09:50;8.18;;;2.10;;
23260;SDS011;11799;47.740;-3.390;2023-05-16T01:12:20;9.45;;;2.13;;
23260;SDS011;11799;47.740;-3.390;2023-05-16T01:14:55;10.38;;;1.95;;
23260;SDS011;11799;47.740;-3.390;2023-05-16T01:28:12;7.80;;;1.95;;
23260;SDS011;11799;47.740;-3.390;2023-05-16T01:30:41;9.30;;;2.03;;
23260;SDS011;11799;47.740;-3.390;2023-05-16T01:33:07;10.52;;;2.03;;
23260;SDS011;11799;47.740;-3.390;2023-05-16T01:35:34;7.18;;;1.92;;
23260;SDS011;11799;47.740;-3.390;2023-05-16T01:38:24;6.18;;;2.05;;
23260;SDS011;11799;47.740;-3.390;2023-05-16T01:43:47;12.30;;;2.03;;
23260;SDS011;11799;47.740;-3.390;2023-05-16T01:46:18;6.60;;;1.58;;
23260;SDS011;11799;47.740;-3.390;2023-05-16T01:48:52;10.38;;;1.92;;
23260;SDS011;11799;47.740;-3.390;2023-05-16T01:51:21;6.05;;;2.10;;
23260;SDS011;11799;47.740;-3.390;2023-05-16T01:56:19;5.53;;;1.73;;
23260;SDS011;11799;47.740;-3.390;2023-05-16T01:58:46;9.05;;;2.22;;
23260;SDS011;11799;47.740;-3.390;2023-05-16T02:01:13;5.70;;;1.73;;
23260;SDS011;11799;47.740;-3.390;2023-05-16T02:03:39;7.07;;;2.45;;
23260;SDS011;11799;47.740;-3.390;2023-05-16T02:06:05;10.57;;;1.98;;
23260;SDS011;11799;47.740;-3.390;2023-05-16T02:08:31;11.25;;;1.83;;
23260;SDS011;11799;47.740;-3.390;2023-05-16T02:10:57;6.57;;;1.85;;
23260;SDS011;11799;47.740;-3.390;2023-05-16T02:13:23;9.60;;;2.40;;
23260;SDS011;11799;47.740;-3.390;2023-05-16T02:15:49;10.50;;;2.08;;
23260;SDS011;11799;47.740;-3.390;2023-05-16T02:18:14;5.95;;;2.40;;
23260;SDS011;11799;47.740;-3.390;2023-05-16T02:20:41;9.45;;;1.95;;
23260;SDS011;11799;47.740;-3.390;2023-05-16T02:23:07;12.98;;;1.92;;
23260;SDS011;11799;47.740;-3.390;2023-05-16T02:25:32;8.75;;;2.20;;
23260;SDS011;11799;47.740;-3.390;2023-05-16T02:27:58;9.63;;;2.47;;
23260;SDS011;11799;47.740;-3.390;2023-05-16T02:30:23;8.60;;;2.10;;
23260;SDS011;11799;47.740;-3.390;2023-05-16T02:32:49;7.70;;;1.77;;
23260;SDS011;11799;47.740;-3.390;2023-05-16T02:35:15;8.38;;;2.20;;
23260;SDS011;11799;47.740;-3.390;2023-05-16T02:37:42;9.40;;;2.08;;
23260;SDS011;11799;47.740;-3.390;2023-05-16T02:40:08;7.05;;;2.08;;
23260;SDS011;11799;47.740;-3.390;2023-05-16T02:42:35;7.20;;;1.75;;
23260;SDS011;11799;47.740;-3.390;2023-05-16T02:45:00;9.50;;;1.95;;
23260;SDS011;11799;47.740;-3.390;2023-05-16T02:47:26;7.03;;;2.25;;
23260;SDS011;11799;47.740;-3.390;2023-05-16T02:49:52;6.90;;;2.33;;
23260;SDS011;11799;47.740;-3.390;2023-05-16T02:52:18;6.65;;;2.10;;
23260;SDS011;11799;47.740;-3.390;2023-05-16T02:54:44;10.13;;;2.13;;
23260;SDS011;11799;47.740;-3.390;2023-05-16T02:57:09;9.55;;;2.55;;
23260;SDS011;11799;47.740;-3.390;2023-05-16T02:59:36;13.52;;;2.58;;
23260;SDS011;11799;47.740;-3.390;2023-05-16T03:02:01;11.00;;;2.20;;
23260;SDS011;11799;47.740;-3.390;2023-05-16T03:04:27;7.55;;;2.03;;
23260;SDS011;11799;47.740;-3.390;2023-05-16T03:06:53;6.57;;;1.90;;
23260;SDS011;11799;47.740;-3.390;2023-05-16T03:09:18;9.23;;;2.00;;
23260;SDS011;11799;47.740;-3.390;2023-05-16T03:11:44;7.35;;;2.15;;
23260;SDS011;11799;47.740;-3.390;2023-05-16T03:14:10;7.10;;;1.92;;
23260;SDS011;11799;47.740;-3.390;2023-05-16T03:16:36;11.85;;;2.30;;
23260;SDS011;11799;47.740;-3.390;2023-05-16T03:19:03;6.75;;;1.73;;
23260;SDS011;11799;47.740;-3.390;2023-05-16T03:21:29;8.00;;;2.00;;
23260;SDS011;11799;47.740;-3.390;2023-05-16T03:23:55;9.88;;;1.83;;
23260;SDS011;11799;47.740;-3.390;2023-05-16T03:26:22;10.63;;;2.25;;
23260;SDS011;11799;47.740;-3.390;2023-05-16T03:28:50;8.45;;;2.08;;
23260;SDS011;11799;47.740;-3.390;2023-05-16T03:31:15;10.60;;;2.30;;
23260;SDS011;11799;47.740;-3.390;2023-05-16T03:33:41;7.20;;;1.88;;
23260;SDS011;11799;47.740;-3.390;2023-05-16T03:36:07;9.75;;;2.38;;
23260;SDS011;11799;47.740;-3.390;2023-05-16T03:38:34;4.63;;;1.73;;
23260;SDS011;11799;47.740;-3.390;2023-05-16T03:40:59;6.82;;;1.75;;
23260;SDS011;11799;47.740;-3.390;2023-05-16T03:43:25;12.18;;;2.33;;
23260;SDS011;11799;47.740;-3.390;2023-05-16T03:45:51;8.95;;;2.22;;
23260;SDS011;11799;47.740;-3.390;2023-05-16T03:48:16;2.75;;;1.55;;
23260;SDS011;11799;47.740;-3.390;2023-05-16T03:50:42;8.13;;;2.10;;
23260;SDS011;11799;47.740;-3.390;2023-05-16T03:53:08;7.22;;;1.77;;
23260;SDS011;11799;47.740;-3.390;2023-05-16T03:55:34;5.97;;;1.92;;
23260;SDS011;11799;47.740;-3.390;2023-05-16T03:57:59;10.02;;;1.90;;
23260;SDS011;11799;47.740;-3.390;2023-05-16T04:00:25;10.85;;;2.13;;
23260;SDS011;11799;47.740;-3.390;2023-05-16T04:02:51;5.82;;;2.17;;
23260;SDS011;11799;47.740;-3.390;2023-05-16T04:05:16;6.57;;;1.85;;
23260;SDS011;11799;47.740;-3.390;2023-05-16T04:07:42;11.52;;;2.35;;
23260;SDS011;11799;47.740;-3.390;2023-05-16T04:10:08;7.13;;;2.35;;
23260;SDS011;11799;47.740;-3.390;2023-05-16T04:12:34;7.90;;;1.85;;
23260;SDS011;11799;47.740;-3.390;2023-05-16T04:15:00;12.30;;;2.15;;
23260;SDS011;11799;47.740;-3.390;2023-05-16T04:17:26;7.93;;;2.20;;
23260;SDS011;11799;47.740;-3.390;2023-05-16T04:19:51;8.93;;;2.15;;
23260;SDS011;11799;47.740;-3.390;2023-05-16T04:22:19;7.95;;;2.42;;
23260;SDS011;11799;47.740;-3.390;2023-05-16T04:24:46;15.82;;;2.92;;
23260;SDS011;11799;47.740;-3.390;2023-05-16T04:27:11;5.97;;;2.20;;
23260;SDS011;11799;47.740;-3.390;2023-05-16T04:29:37;8.35;;;2.28;;
23260;SDS011;11799;47.740;-3.390;2023-05-16T04:32:02;7.97;;;2.05;;
23260;SDS011;11799;47.740;-3.390;2023-05-16T04:34:28;14.55;;;2.45;;
23260;SDS011;11799;47.740;-3.390;2023-05-16T04:36:54;6.57;;;1.98;;
23260;SDS011;11799;47.740;-3.390;2023-05-16T04:39:20;5.25;;;2.00;;
23260;SDS011;11799;47.740;-3.390;2023-05-16T04:41:46;9.32;;;2.08;;
23260;SDS011;11799;47.740;-3.390;2023-05-16T04:44:11;8.95;;;2.25;;
23260;SDS011;11799;47.740;-3.390;2023-05-16T04:46:37;5.90;;;2.03;;
23260;SDS011;11799;47.740;-3.390;2023-05-16T04:49:02;8.68;;;1.95;;
23260;SDS011;11799;47.740;-3.390;2023-05-16T04:51:28;6.65;;;1.80;;
23260;SDS011;11799;47.740;-3.390;2023-05-16T04:53:54;7.45;;;1.92;;
23260;SDS011;11799;47.740;-3.390;2023-05-16T04:56:20;9.63;;;2.40;;
23260;SDS011;11799;47.740;-3.390;2023-05-16T04:58:46;8.63;;;2.45;;
23260;SDS011;11799;47.740;-3.390;2023-05-16T05:01:12;9.70;;;2.28;;
23260;SDS011;11799;47.740;-3.390;2023-05-16T05:03:37;11.82;;;2.97;;
23260;SDS011;11799;47.740;-3.390;2023-05-16T05:06:03;8.18;;;2.50;;
23260;SDS011;11799;47.740;-3.390;2023-05-16T05:08:29;8.98;;;2.38;;
23260;SDS011;11799;47.740;-3.390;2023-05-16T05:10:55;8.23;;;2.25;;
23260;SDS011;11799;47.740;-3.390;2023-05-16T05:13:21;8.48;;;2.28;;
23260;SDS011;11799;47.740;-3.390;2023-05-16T05:15:46;5.60;;;2.80;;
23260;SDS011;11799;47.740;-3.390;2023-05-16T05:18:14;5.40;;;2.33;;
23260;SDS011;11799;47.740;-3.390;2023-05-16T05:20:40;5.82;;;2.35;;
23260;SDS011;11799;47.740;-3.390;2023-05-16T05:23:06;9.55;;;2.22;;
23260;SDS011;11799;47.740;-3.390;2023-05-16T05:25:31;8.02;;;2.72;;
23260;SDS011;11799;47.740;-3.390;2023-05-16T05:27:57;6.43;;;1.90;;
23260;SDS011;11799;47.740;-3.390;2023-05-16T05:30:23;12.80;;;2.63;;
23260;SDS011;11799;47.740;-3.390;2023-05-16T05:32:48;5.72;;;2.35;;
23260;SDS011;11799;47.740;-3.390;2023-05-16T05:35:14;6.15;;;1.52;;
23260;SDS011;11799;47.740;-3.390;2023-05-16T05:37:40;6.18;;;1.70;;
23260;SDS011;11799;47.740;-3.390;2023-05-16T05:40:05;8.27;;;2.38;;
23260;SDS011;11799;47.740;-3.390;2023-05-16T05:42:32;7.63;;;2.13;;
23260;SDS011;11799;47.740;-3.390;2023-05-16T05:44:58;6.45;;;2.33;;
23260;SDS011;11799;47.740;-3.390;2023-05-16T05:47:23;8.77;;;1.90;;
23260;SDS011;11799;47.740;-3.390;2023-05-16T05:49:49;8.57;;;1.80;;
23260;SDS011;11799;47.740;-3.390;2023-05-16T05:52:14;7.18;;;1.70;;
23260;SDS011;11799;47.740;-3.390;2023-05-16T05:54:40;7.55;;;1.80;;
23260;SDS011;11799;47.740;-3.390;2023-05-16T05:57:06;5.40;;;1.95;;
23260;SDS011;11799;47.740;-3.390;2023-05-16T05:59:31;9.38;;;2.40;;
23260;SDS011;11799;47.740;-3.390;2023-05-16T06:01:57;7.90;;;1.67;;
23260;SDS011;11799;47.740;-3.390;2023-05-16T06:04:22;7.00;;;1.65;;
23260;SDS011;11799;47.740;-3.390;2023-05-16T06:06:48;4.78;;;1.60;;
23260;SDS011;11799;47.740;-3.390;2023-05-16T06:09:13;7.57;;;2.00;;
23260;SDS011;11799;47.740;-3.390;2023-05-16T06:11:42;7.10;;;1.90;;
23260;SDS011;11799;47.740;-3.390;2023-05-16T06:14:10;5.00;;;1.50;;
23260;SDS011;11799;47.740;-3.390;2023-05-16T06:16:35;6.47;;;1.70;;
23260;SDS011;11799;47.740;-3.390;2023-05-16T06:19:03;9.23;;;1.83;;
23260;SDS011;11799;47.740;-3.390;2023-05-16T06:21:29;7.85;;;1.77;;
23260;SDS011;11799;47.740;-3.390;2023-05-16T06:23:54;8.27;;;1.80;;
23260;SDS011;11799;47.740;-3.390;2023-05-16T06:26:21;6.68;;;1.98;;
23260;SDS011;11799;47.740;-3.390;2023-05-16T06:28:47;6.47;;;1.48;;
23260;SDS011;11799;47.740;-3.390;2023-05-16T06:31:12;4.32;;;1.45;;
23260;SDS011;11799;47.740;-3.390;2023-05-16T06:33:38;6.20;;;1.58;;
23260;SDS011;11799;47.740;-3.390;2023-05-16T06:36:03;7.20;;;2.10;;
23260;SDS011;11799;47.740;-3.390;2023-05-16T06:38:29;7.15;;;1.83;;
23260;SDS011;11799;47.740;-3.390;2023-05-16T06:40:55;11.88;;;1.88;;
23260;SDS011;11799;47.740;-3.390;2023-05-16T06:43:20;7.15;;;1.88;;
23260;SDS011;11799;47.740;-3.390;2023-05-16T06:45:46;5.13;;;1.60;;
23260;SDS011;11799;47.740;-3.390;2023-05-16T06:48:12;8.18;;;2.13;;
23260;SDS011;11799;47.740;-3.390;2023-05-16T06:50:41;14.18;;;2.40;;
23260;SDS011;11799;47.740;-3.390;2023-05-16T06:53:06;6.03;;;1.42;;
23260;SDS011;11799;47.740;-3.390;2023-05-16T06:55:32;4.93;;;1.80;;
23260;SDS011;11799;47.740;-3.390;2023-05-16T06:57:58;8.10;;;1.60;;
23260;SDS011;11799;47.740;-3.390;2023-05-16T07:00:24;7.63;;;2.03;;
23260;SDS011;11799;47.740;-3.390;2023-05-16T07:02:50;7.32;;;1.75;;
23260;SDS011;11799;47.740;-3.390;2023-05-16T07:05:16;3.92;;;1.50;;
23260;SDS011;11799;47.740;-3.390;2023-05-16T07:07:41;8.35;;;1.75;;
23260;SDS011;11799;47.740;-3.390;2023-05-16T07:10:07;7.85;;;1.60;;
23260;SDS011;11799;47.740;-3.390;2023-05-16T07:12:34;4.78;;;1.48;;
23260;SDS011;11799;47.740;-3.390;2023-05-16T07:15:01;5.28;;;1.40;;
23260;SDS011;11799;47.740;-3.390;2023-05-16T07:17:27;6.10;;;1.35;;
23260;SDS011;11799;47.740;-3.390;2023-05-16T07:19:52;4.68;;;1.25;;
23260;SDS011;11799;47.740;-3.390;2023-05-16T07:22:18;6.90;;;1.50;;
23260;SDS011;11799;47.740;-3.390;2023-05-16T07:24:44;5.07;;;1.38;;
23260;SDS011;11799;47.740;-3.390;2023-05-16T07:27:09;8.25;;;1.70;;
23260;SDS011;11799;47.740;-3.390;2023-05-16T07:29:35;3.88;;;1.30;;
23260;SDS011;11799;47.740;-3.390;2023-05-16T07:32:01;4.90;;;1.42;;
23260;SDS011;11799;47.740;-3.390;2023-05-16T07:34:27;5.45;;;1.50;;
23260;SDS011;11799;47.740;-3.390;2023-05-16T07:36:52;5.72;;;1.60;;
23260;SDS011;11799;47.740;-3.390;2023-05-16T07:39:18;9.30;;;1.48;;
23260;SDS011;11799;47.740;-3.390;2023-05-16T07:41:43;4.18;;;1.20;;
23260;SDS011;11799;47.740;-3.390;2023-05-16T07:44:09;10.57;;;2.38;;
23260;SDS011;11799;47.740;-3.390;2023-05-16T07:46:35;4.40;;;1.10;;
23260;SDS011;11799;47.740;-3.390;2023-05-16T07:49:00;5.95;;;1.60;;
23260;SDS011;11799;47.740;-3.390;2023-05-16T07:51:25;4.80;;;1.40;;
23260;SDS011;11799;47.740;-3.390;2023-05-16T07:53:51;6.47;;;1.27;;
23260;SDS011;11799;47.740;-3.390;2023-05-16T07:56:17;6.20;;;1.38;;
23260;SDS011;11799;47.740;-3.390;2023-05-16T07:58:42;5.53;;;1.27;;
23260;SDS011;11799;47.740;-3.390;2023-05-16T08:01:08;6.28;;;1.13;;
23260;SDS011;11799;47.740;-3.390;2023-05-16T08:03:33;3.83;;;1.33;;
23260;SDS011;11799;47.740;-3.390;2023-05-16T08:05:59;4.43;;;1.40;;
23260;SDS011;11799;47.740;-3.390;2023-05-16T08:08:25;3.92;;;1.20;;
23260;SDS011;11799;47.740;-3.390;2023-05-16T08:10:50;4.32;;;1.05;;
23260;SDS011;11799;47.740;-3.390;2023-05-16T08:13:16;9.18;;;1.85;;
23260;SDS011;11799;47.740;-3.390;2023-05-16T08:15:41;2.63;;;1.10;;
23260;SDS011;11799;47.740;-3.390;2023-05-16T08:18:11;6.18;;;1.50;;
23260;SDS011;11799;47.740;-3.390;2023-05-16T08:20:39;3.42;;;1.45;;
23260;SDS011;11799;47.740;-3.390;2023-05-16T08:23:06;4.43;;;1.35;;
23260;SDS011;11799;47.740;-3.390;2023-05-16T08:25:32;5.90;;;1.50;;
23260;SDS011;11799;47.740;-3.390;2023-05-16T08:27:57;5.30;;;1.40;;
23260;SDS011;11799;47.740;-3.390;2023-05-16T08:30:23;5.93;;;1.60;;
23260;SDS011;11799;47.740;-3.390;2023-05-16T08:32:50;2.63;;;1.10;;
23260;SDS011;11799;47.740;-3.390;2023-05-16T08:35:15;4.93;;;1.48;;
23260;SDS011;11799;47.740;-3.390;2023-05-16T08:37:41;3.67;;;1.55;;
23260;SDS011;11799;47.740;-3.390;2023-05-16T08:40:08;4.00;;;1.17;;
23260;SDS011;11799;47.740;-3.390;2023-05-16T08:42:35;4.22;;;1.05;;
23260;SDS011;11799;47.740;-3.390;2023-05-16T08:45:01;6.70;;;1.35;;
23260;SDS011;11799;47.740;-3.390;2023-05-16T08:47:29;8.55;;;1.67;;
23260;SDS011;11799;47.740;-3.390;2023-05-16T08:49:56;3.83;;;1.40;;
23260;SDS011;11799;47.740;-3.390;2023-05-16T08:52:25;5.80;;;1.30;;
23260;SDS011;11799;47.740;-3.390;2023-05-16T08:54:55;4.60;;;1.20;;
23260;SDS011;11799;47.740;-3.390;2023-05-16T08:57:24;4.88;;;1.50;;
23260;SDS011;11799;47.740;-3.390;2023-05-16T08:59:51;4.30;;;1.40;;
23260;SDS011;11799;47.740;-3.390;2023-05-16T09:02:20;4.60;;;1.35;;
23260;SDS011;11799;47.740;-3.390;2023-05-16T09:04:47;2.65;;;1.10;;
23260;SDS011;11799;47.740;-3.390;2023-05-16T09:07:13;2.88;;;1.35;;
23260;SDS011;11799;47.740;-3.390;2023-05-16T09:09:39;2.58;;;1.00;;
23260;SDS011;11799;47.740;-3.390;2023-05-16T09:12:05;3.47;;;1.00;;
23260;SDS011;11799;47.740;-3.390;2023-05-16T09:14:31;4.25;;;1.48;;
23260;SDS011;11799;47.740;-3.390;2023-05-16T09:17:06;4.97;;;1.42;;
23260;SDS011;11799;47.740;-3.390;2023-05-16T09:19:36;2.85;;;1.25;;
23260;SDS011;11799;47.740;-3.390;2023-05-16T09:22:05;3.72;;;1.27;;
23260;SDS011;11799;47.740;-3.390;2023-05-16T09:24:35;3.70;;;1.40;;
23260;SDS011;11799;47.740;-3.390;2023-05-16T09:27:12;4.10;;;1.30;;
23260;SDS011;11799;47.740;-3.390;2023-05-16T09:29:39;3.45;;;1.33;;
23260;SDS011;11799;47.740;-3.390;2023-05-16T09:32:09;3.28;;;1.35;;
23260;SDS011;11799;47.740;-3.390;2023-05-16T09:34:38;7.35;;;1.38;;
23260;SDS011;11799;47.740;-3.390;2023-05-16T09:37:13;5.28;;;1.38;;
23260;SDS011;11799;47.740;-3.390;2023-05-16T09:39:46;4.80;;;1.40;;
23260;SDS011;11799;47.740;-3.390;2023-05-16T09:42:13;4.07;;;1.02;;
23260;SDS011;11799;47.740;-3.390;2023-05-16T09:44:47;3.58;;;1.00;;
23260;SDS011;11799;47.740;-3.390;2023-05-16T09:47:15;3.40;;;1.30;;
23260;SDS011;11799;47.740;-3.390;2023-05-16T09:49:42;3.92;;;1.10;;
23260;SDS011;11799;47.740;-3.390;2023-05-16T09:52:09;2.88;;;1.30;;
23260;SDS011;11799;47.740;-3.390;2023-05-16T09:54:35;3.30;;;1.00;;
23260;SDS011;11799;47.740;-3.390;2023-05-16T09:57:00;5.43;;;1.70;;
23260;SDS011;11799;47.740;-3.390;2023-05-16T09:59:29;2.17;;;1.17;;
23260;SDS011;11799;47.740;-3.390;2023-05-16T10:01:59;2.88;;;1.35;;
23260;SDS011;11799;47.740;-3.390;2023-05-16T10:04:25;2.85;;;1.10;;
23260;SDS011;11799;47.740;-3.390;2023-05-16T10:06:52;4.25;;;1.25;;
23260;SDS011;11799;47.740;-3.390;2023-05-16T10:11:47;4.43;;;1.20;;
23260;SDS011;11799;47.740;-3.390;2023-05-16T10:14:15;3.33;;;1.95;;
23260;SDS011;11799;47.740;-3.390;2023-05-16T10:16:42;2.22;;;1.00;;
23260;SDS011;11799;47.740;-3.390;2023-05-16T10:19:12;3.38;;;1.13;;
23260;SDS011;11799;47.740;-3.390;2023-05-16T10:21:41;3.28;;;1.25;;
23260;SDS011;11799;47.740;-3.390;2023-05-16T10:24:12;3.17;;;1.27;;
23260;SDS011;11799;47.740;-3.390;2023-05-16T10:26:42;3.93;;;1.20;;
23260;SDS011;11799;47.740;-3.390;2023-05-16T10:29:08;4.30;;;1.40;;
23260;SDS011;11799;47.740;-3.390;2023-05-16T10:31:34;3.05;;;1.15;;
23260;SDS011;11799;47.740;-3.390;2023-05-16T10:34:00;2.83;;;1.20;;
23260;SDS011;11799;47.740;-3.390;2023-05-16T10:36:26;4.10;;;1.20;;
23260;SDS011;11799;47.740;-3.390;2023-05-16T10:38:52;4.32;;;1.27;;
23260;SDS011;11799;47.740;-3.390;2023-05-16T10:41:18;3.33;;;1.20;;
23260;SDS011;11799;47.740;-3.390;2023-05-16T10:43:54;6.43;;;1.27;;
23260;SDS011;11799;47.740;-3.390;2023-05-16T10:46:22;5.05;;;1.63;;
23260;SDS011;11799;47.740;-3.390;2023-05-16T10:48:49;3.60;;;1.50;;
23260;SDS011;11799;47.740;-3.390;2023-05-16T10:53:46;4.32;;;1.70;;
23260;SDS011;11799;47.740;-3.390;2023-05-16T10:56:11;3.58;;;1.33;;
23260;SDS011;11799;47.740;-3.390;2023-05-16T11:01:19;4.40;;;1.60;;
23260;SDS011;11799;47.740;-3.390;2023-05-16T11:06:29;3.65;;;1.20;;
23260;SDS011;11799;47.740;-3.390;2023-05-16T11:09:06;2.58;;;1.13;;
23260;SDS011;11799;47.740;-3.390;2023-05-16T11:19:29;3.95;;;1.52;;
23260;SDS011;11799;47.740;-3.390;2023-05-16T11:27:27;5.15;;;1.45;;
23260;SDS011;11799;47.740;-3.390;2023-05-16T11:32:35;4.03;;;1.10;;
23260;SDS011;11799;47.740;-3.390;2023-05-16T11:35:02;5.60;;;1.02;;
23260;SDS011;11799;47.740;-3.390;2023-05-16T11:37:29;1.80;;;0.98;;
23260;SDS011;11799;47.740;-3.390;2023-05-16T11:40:01;2.22;;;0.98;;
23260;SDS011;11799;47.740;-3.390;2023-05-16T11:42:29;4.35;;;1.20;;
23260;SDS011;11799;47.740;-3.390;2023-05-16T11:45:02;2.90;;;1.38;;
23260;SDS011;11799;47.740;-3.390;2023-05-16T11:47:30;2.80;;;1.30;;
23260;SDS011;11799;47.740;-3.390;2023-05-16T11:49:56;3.80;;;1.10;;
23260;SDS011;11799;47.740;-3.390;2023-05-16T11:52:22;4.20;;;1.10;;
23260;SDS011;11799;47.740;-3.390;2023-05-16T11:54:48;3.72;;;1.45;;
23260;SDS011;11799;47.740;-3.390;2023-05-16T11:57:15;1.45;;;1.00;;
23260;SDS011;11799;47.740;-3.390;2023-05-16T11:59:41;4.13;;;1.00;;
23260;SDS011;11799;47.740;-3.390;2023-05-16T12:02:06;2.67;;;1.00;;
23260;SDS011;11799;47.740;-3.390;2023-05-16T12:04:34;2.53;;;1.00;;
23260;SDS011;11799;47.740;-3.390;2023-05-16T12:07:02;1.48;;;0.90;;
23260;SDS011;11799;47.740;-3.390;2023-05-16T12:09:28;1.05;;;0.80;;
23260;SDS011;11799;47.740;-3.390;2023-05-16T12:11:55;1.50;;;0.95;;
23260;SDS011;11799;47.740;-3.390;2023-05-16T12:14:20;3.17;;;0.90;;
23260;SDS011;11799;47.740;-3.390;2023-05-16T12:16:47;4.38;;;1.20;;
23260;SDS011;11799;47.740;-3.390;2023-05-16T12:19:13;2.50;;;0.82;;
23260;SDS011;11799;47.740;-3.390;2023-05-16T12:21:39;1.55;;;0.93;;
23260;SDS011;11799;47.740;-3.390;2023-05-16T12:24:07;3.13;;;1.10;;
23260;SDS011;11799;47.740;-3.390;2023-05-16T12:26:33;1.58;;;1.13;;
23260;SDS011;11799;47.740;-3.390;2023-05-16T12:28:59;2.95;;;1.08;;
23260;SDS011;11799;47.740;-3.390;2023-05-16T12:31:28;1.67;;;0.80;;
23260;SDS011;11799;47.740;-3.390;2023-05-16T12:33:57;2.95;;;0.80;;
23260;SDS011;11799;47.740;-3.390;2023-05-16T12:36:23;2.97;;;1.10;;
23260;SDS011;11799;47.740;-3.390;2023-05-16T12:38:49;2.75;;;0.75;;
23260;SDS011;11799;47.740;-3.390;2023-05-16T12:41:16;2.70;;;1.00;;
23260;SDS011;11799;47.740;-3.390;2023-05-16T12:43:47;1.55;;;0.90;;
23260;SDS011;11799;47.740;-3.390;2023-05-16T12:46:13;2.17;;;0.82;;
23260;SDS011;11799;47.740;-3.390;2023-05-16T12:48:38;4.50;;;0.90;;
23260;SDS011;11799;47.740;-3.390;2023-05-16T12:51:13;2.63;;;1.15;;
23260;SDS011;11799;47.740;-3.390;2023-05-16T12:53:41;2.03;;;0.90;;
23260;SDS011;11799;47.740;-3.390;2023-05-16T12:56:11;2.20;;;0.70;;
23260;SDS011;11799;47.740;-3.390;2023-05-16T12:58:38;2.78;;;1.00;;
23260;SDS011;11799;47.740;-3.390;2023-05-16T13:01:04;3.67;;;1.40;;
23260;SDS011;11799;47.740;-3.390;2023-05-16T13:03:30;2.40;;;0.93;;
23260;SDS011;11799;47.740;-3.390;2023-05-16T13:05:57;2.38;;;0.80;;
23260;SDS011;11799;47.740;-3.390;2023-05-16T13:08:23;3.60;;;0.98;;
23260;SDS011;11799;47.740;-3.390;2023-05-16T13:10:48;3.75;;;0.88;;
23260;SDS011;11799;47.740;-3.390;2023-05-16T13:13:15;3.53;;;1.13;;
23260;SDS011;11799;47.740;-3.390;2023-05-16T13:15:41;5.55;;;1.25;;
23260;SDS011;11799;47.740;-3.390;2023-05-16T13:18:07;2.72;;;1.00;;
23260;SDS011;11799;47.740;-3.390;2023-05-16T13:20:32;3.67;;;1.02;;
23260;SDS011;11799;47.740;-3.390;2023-05-16T13:22:58;3.13;;;1.00;;
23260;SDS011;11799;47.740;-3.390;2023-05-16T13:25:23;3.03;;;0.90;;
23260;SDS011;11799;47.740;-3.390;2023-05-16T13:27:49;2.42;;;0.90;;
23260;SDS011;11799;47.740;-3.390;2023-05-16T13:30:14;2.50;;;0.85;;
23260;SDS011;11799;47.740;-3.390;2023-05-16T13:32:40;4.18;;;0.95;;
23260;SDS011;11799;47.740;-3.390;2023-05-16T13:35:07;3.58;;;0.90;;
23260;SDS011;11799;47.740;-3.390;2023-05-16T13:37:33;4.90;;;0.90;;
23260;SDS011;11799;47.740;-3.390;2023-05-16T13:40:00;1.73;;;0.90;;
23260;SDS011;11799;47.740;-3.390;2023-05-16T13:42:25;1.73;;;0.80;;
23260;SDS011;11799;47.740;-3.390;2023-05-16T13:44:51;2.40;;;1.00;;
23260;SDS011;11799;47.740;-3.390;2023-05-16T13:47:17;4.18;;;0.90;;
23260;SDS011;11799;47.740;-3.390;2023-05-16T13:49:42;4.65;;;0.85;;
23260;SDS011;11799;47.740;-3.390;2023-05-16T13:52:08;4.55;;;0.90;;
23260;SDS011;11799;47.740;-3.390;2023-05-16T13:54:34;6.25;;;0.90;;
23260;SDS011;11799;47.740;-3.390;2023-05-16T13:57:00;3.60;;;1.00;;
23260;SDS011;11799;47.740;-3.390;2023-05-16T13:59:27;4.13;;;0.95;;
23260;SDS011;11799;47.740;-3.390;2023-05-16T14:01:53;2.30;;;1.02;;
23260;SDS011;11799;47.740;-3.390;2023-05-16T14:04:18;2.10;;;1.10;;
23260;SDS011;11799;47.740;-3.390;2023-05-16T14:06:44;3.17;;;0.90;;
23260;SDS011;11799;47.740;-3.390;2023-05-16T14:09:09;2.08;;;0.93;;
23260;SDS011;11799;47.740;-3.390;2023-05-16T14:11:37;2.20;;;1.05;;
23260;SDS011;11799;47.740;-3.390;2023-05-16T14:14:02;9.55;;;0.88;;
23260;SDS011;11799;47.740;-3.390;2023-05-16T14:16:28;3.17;;;0.88;;
23260;SDS011;11799;47.740;-3.390;2023-05-16T14:18:55;1.80;;;0.93;;
23260;SDS011;11799;47.740;-3.390;2023-05-16T14:21:20;3.63;;;1.00;;
23260;SDS011;11799;47.740;-3.390;2023-05-16T14:23:46;2.33;;;0.90;;
23260;SDS011;11799;47.740;-3.390;2023-05-16T14:26:12;3.67;;;1.10;;
23260;SDS011;11799;47.740;-3.390;2023-05-16T14:28:39;4.93;;;1.20;;
23260;SDS011;11799;47.740;-3.390;2023-05-16T14:31:04;3.13;;;1.10;;
23260;SDS011;11799;47.740;-3.390;2023-05-16T14:33:31;3.97;;;1.00;;
23260;SDS011;11799;47.740;-3.390;2023-05-16T14:35:57;1.65;;;0.75;;
23260;SDS011;11799;47.740;-3.390;2023-05-16T14:38:23;1.85;;;0.90;;
23260;SDS011;11799;47.740;-3.390;2023-05-16T14:40:48;3.25;;;1.20;;
23260;SDS011;11799;47.740;-3.390;2023-05-16T14:43:14;2.83;;;0.98;;
23260;SDS011;11799;47.740;-3.390;2023-05-16T14:45:40;1.02;;;0.90;;
23260;SDS011;11799;47.740;-3.390;2023-05-16T14:48:06;1.33;;;1.20;;
23260;SDS011;11799;47.740;-3.390;2023-05-16T14:50:32;2.72;;;1.20;;
23260;SDS011;11799;47.740;-3.390;2023-05-16T14:52:58;3.25;;;1.00;;
23260;SDS011;11799;47.740;-3.390;2023-05-16T14:55:24;3.70;;;1.00;;
23260;SDS011;11799;47.740;-3.390;2023-05-16T14:57:49;1.70;;;0.73;;
23260;SDS011;11799;47.740;-3.390;2023-05-16T15:00:15;2.55;;;0.90;;
23260;SDS011;11799;47.740;-3.390;2023-05-16T15:02:41;6.00;;;1.20;;
23260;SDS011;11799;47.740;-3.390;2023-05-16T15:05:07;8.00;;;1.10;;
23260;SDS011;11799;47.740;-3.390;2023-05-16T15:07:33;4.85;;;1.10;;
23260;SDS011;11799;47.740;-3.390;2023-05-16T15:09:59;1.95;;;1.10;;
23260;SDS011;11799;47.740;-3.390;2023-05-16T15:12:25;1.58;;;0.90;;